sensor_id;sensor_type;location;lat;lon;timestamp;P1;durP1;ratioP1;P2;durP2;ratioP2
16685;SDS011;8456;51.136;4.210;2022-08-11T00:00:31;3.40;;;2.60;;
16685;SDS011;8456;51.136;4.210;2022-08-11T00:03:04;8.67;;;3.03;;
16685;SDS011;8456;51.136;4.210;2022-08-11T00:05:32;4.43;;;2.77;;
16685;SDS011;8456;51.136;4.210;2022-08-11T00:08:08;6.60;;;2.80;;
16685;SDS011;8456;51.136;4.210;2022-08-11T00:10:36;4.37;;;2.70;;
16685;SDS011;8456;51.136;4.210;2022-08-11T00:13:03;3.90;;;2.93;;
16685;SDS011;8456;51.136;4.210;2022-08-11T00:15:38;6.60;;;2.93;;
16685;SDS011;8456;51.136;4.210;2022-08-11T00:18:07;7.70;;;2.90;;
16685;SDS011;8456;51.136;4.210;2022-08-11T00:20:35;3.77;;;2.60;;
16685;SDS011;8456;51.136;4.210;2022-08-11T00:23:06;5.70;;;2.37;;
16685;SDS011;8456;51.136;4.210;2022-08-11T00:25:41;5.17;;;2.60;;
16685;SDS011;8456;51.136;4.210;2022-08-11T00:28:29;4.50;;;2.43;;
16685;SDS011;8456;51.136;4.210;2022-08-11T00:31:02;5.50;;;2.90;;
16685;SDS011;8456;51.136;4.210;2022-08-11T00:33:36;4.60;;;3.50;;
16685;SDS011;8456;51.136;4.210;2022-08-11T00:36:07;4.67;;;2.50;;
16685;SDS011;8456;51.136;4.210;2022-08-11T00:38:39;5.50;;;2.60;;
16685;SDS011;8456;51.136;4.210;2022-08-11T01:06:02;8.40;;;2.90;;
16685;SDS011;8456;51.136;4.210;2022-08-11T01:08:50;7.03;;;3.00;;
16685;SDS011;8456;51.136;4.210;2022-08-11T01:14:15;5.87;;;3.10;;
16685;SDS011;8456;51.136;4.210;2022-08-11T01:19:25;5.33;;;2.97;;
16685;SDS011;8456;51.136;4.210;2022-08-11T01:22:22;6.30;;;3.10;;
16685;SDS011;8456;51.136;4.210;2022-08-11T01:36:47;4.53;;;3.43;;
16685;SDS011;8456;51.136;4.210;2022-08-11T01:39:37;7.90;;;3.10;;
16685;SDS011;8456;51.136;4.210;2022-08-11T01:46:07;6.10;;;3.23;;
16685;SDS011;8456;51.136;4.210;2022-08-11T01:54:58;4.83;;;3.00;;
16685;SDS011;8456;51.136;4.210;2022-08-11T01:57:38;5.07;;;3.20;;
16685;SDS011;8456;51.136;4.210;2022-08-11T02:00:18;4.93;;;3.23;;
16685;SDS011;8456;51.136;4.210;2022-08-11T02:08:09;4.20;;;3.20;;
16685;SDS011;8456;51.136;4.210;2022-08-11T02:10:43;6.33;;;3.13;;
16685;SDS011;8456;51.136;4.210;2022-08-11T02:22:02;7.40;;;3.63;;
16685;SDS011;8456;51.136;4.210;2022-08-11T02:24:57;6.03;;;4.00;;
16685;SDS011;8456;51.136;4.210;2022-08-11T02:28:16;4.33;;;3.60;;
16685;SDS011;8456;51.136;4.210;2022-08-11T02:30:30;7.50;;;4.27;;
16685;SDS011;8456;51.136;4.210;2022-08-11T02:41:16;5.20;;;3.77;;
16685;SDS011;8456;51.136;4.210;2022-08-11T02:56:10;6.40;;;3.83;;
16685;SDS011;8456;51.136;4.210;2022-08-11T02:58:54;8.60;;;3.77;;
16685;SDS011;8456;51.136;4.210;2022-08-11T03:01:49;5.63;;;4.07;;
16685;SDS011;8456;51.136;4.210;2022-08-11T03:04:29;9.00;;;4.47;;
16685;SDS011;8456;51.136;4.210;2022-08-11T03:07:16;8.13;;;4.03;;
16685;SDS011;8456;51.136;4.210;2022-08-11T03:09:52;5.67;;;3.73;;
16685;SDS011;8456;51.136;4.210;2022-08-11T03:12:27;6.47;;;4.33;;
16685;SDS011;8456;51.136;4.210;2022-08-11T03:15:19;5.57;;;4.43;;
16685;SDS011;8456;51.136;4.210;2022-08-11T03:18:28;7.33;;;3.87;;
16685;SDS011;8456;51.136;4.210;2022-08-11T03:26:27;5.87;;;4.30;;
16685;SDS011;8456;51.136;4.210;2022-08-11T03:31:58;7.70;;;4.40;;
16685;SDS011;8456;51.136;4.210;2022-08-11T03:34:30;12.17;;;4.57;;
16685;SDS011;8456;51.136;4.210;2022-08-11T03:46:00;5.97;;;4.50;;
16685;SDS011;8456;51.136;4.210;2022-08-11T03:51:28;6.93;;;4.73;;
16685;SDS011;8456;51.136;4.210;2022-08-11T04:19:51;7.67;;;5.07;;
16685;SDS011;8456;51.136;4.210;2022-08-11T04:22:58;7.37;;;5.63;;
16685;SDS011;8456;51.136;4.210;2022-08-11T04:28:32;8.07;;;5.40;;
16685;SDS011;8456;51.136;4.210;2022-08-11T04:31:33;8.40;;;4.47;;
16685;SDS011;8456;51.136;4.210;2022-08-11T04:57:50;12.37;;;5.50;;
16685;SDS011;8456;51.136;4.210;2022-08-11T05:00:53;16.67;;;5.63;;
16685;SDS011;8456;51.136;4.210;2022-08-11T05:04:23;11.37;;;5.93;;
16685;SDS011;8456;51.136;4.210;2022-08-11T05:10:18;15.20;;;5.60;;
16685;SDS011;8456;51.136;4.210;2022-08-11T05:13:02;10.40;;;5.43;;
16685;SDS011;8456;51.136;4.210;2022-08-11T05:15:55;10.80;;;5.63;;
16685;SDS011;8456;51.136;4.210;2022-08-11T05:18:49;12.20;;;6.00;;
16685;SDS011;8456;51.136;4.210;2022-08-11T05:21:35;11.00;;;6.20;;
16685;SDS011;8456;51.136;4.210;2022-08-11T05:24:25;12.83;;;6.10;;
16685;SDS011;8456;51.136;4.210;2022-08-11T05:27:15;6.87;;;5.57;;
16685;SDS011;8456;51.136;4.210;2022-08-11T05:30:05;8.30;;;5.60;;
16685;SDS011;8456;51.136;4.210;2022-08-11T05:33:02;10.20;;;6.10;;
16685;SDS011;8456;51.136;4.210;2022-08-11T05:35:55;12.60;;;5.90;;
16685;SDS011;8456;51.136;4.210;2022-08-11T05:38:33;17.07;;;6.13;;
16685;SDS011;8456;51.136;4.210;2022-08-11T05:41:23;12.97;;;5.73;;
16685;SDS011;8456;51.136;4.210;2022-08-11T05:44:09;7.07;;;5.60;;
16685;SDS011;8456;51.136;4.210;2022-08-11T05:47:00;10.87;;;6.13;;
16685;SDS011;8456;51.136;4.210;2022-08-11T05:49:47;9.43;;;4.80;;
16685;SDS011;8456;51.136;4.210;2022-08-11T05:52:34;14.50;;;5.30;;
16685;SDS011;8456;51.136;4.210;2022-08-11T05:55:20;8.90;;;4.97;;
16685;SDS011;8456;51.136;4.210;2022-08-11T05:58:07;7.47;;;5.00;;
16685;SDS011;8456;51.136;4.210;2022-08-11T06:00:42;15.10;;;5.33;;
16685;SDS011;8456;51.136;4.210;2022-08-11T06:03:10;9.80;;;4.33;;
16685;SDS011;8456;51.136;4.210;2022-08-11T06:05:46;10.83;;;5.43;;
16685;SDS011;8456;51.136;4.210;2022-08-11T06:08:13;7.53;;;4.83;;
16685;SDS011;8456;51.136;4.210;2022-08-11T06:10:43;10.27;;;5.50;;
16685;SDS011;8456;51.136;4.210;2022-08-11T06:13:12;12.70;;;5.23;;
16685;SDS011;8456;51.136;4.210;2022-08-11T06:15:44;16.37;;;5.23;;
16685;SDS011;8456;51.136;4.210;2022-08-11T06:18:16;8.17;;;5.50;;
16685;SDS011;8456;51.136;4.210;2022-08-11T06:20:50;10.73;;;5.23;;
16685;SDS011;8456;51.136;4.210;2022-08-11T06:23:18;10.57;;;4.80;;
16685;SDS011;8456;51.136;4.210;2022-08-11T06:25:48;10.00;;;5.07;;
16685;SDS011;8456;51.136;4.210;2022-08-11T06:28:16;8.60;;;4.93;;
16685;SDS011;8456;51.136;4.210;2022-08-11T06:30:45;10.83;;;4.40;;
16685;SDS011;8456;51.136;4.210;2022-08-11T06:39:18;11.20;;;3.70;;
16685;SDS011;8456;51.136;4.210;2022-08-11T06:42:07;8.33;;;4.07;;
16685;SDS011;8456;51.136;4.210;2022-08-11T06:45:15;10.30;;;4.10;;
16685;SDS011;8456;51.136;4.210;2022-08-11T06:47:48;9.13;;;3.67;;
16685;SDS011;8456;51.136;4.210;2022-08-11T06:50:15;9.05;;;3.72;;
16685;SDS011;8456;51.136;4.210;2022-08-11T06:53:04;7.57;;;3.38;;
16685;SDS011;8456;51.136;4.210;2022-08-11T06:55:34;7.03;;;3.42;;
16685;SDS011;8456;51.136;4.210;2022-08-11T06:58:21;5.95;;;2.67;;
16685;SDS011;8456;51.136;4.210;2022-08-11T07:01:10;8.30;;;3.20;;
16685;SDS011;8456;51.136;4.210;2022-08-11T07:03:39;6.68;;;3.35;;
16685;SDS011;8456;51.136;4.210;2022-08-11T07:09:14;6.20;;;2.95;;
16685;SDS011;8456;51.136;4.210;2022-08-11T07:12:32;4.28;;;3.03;;
16685;SDS011;8456;51.136;4.210;2022-08-11T07:15:24;9.40;;;2.72;;
16685;SDS011;8456;51.136;4.210;2022-08-11T07:18:10;11.05;;;3.05;;
16685;SDS011;8456;51.136;4.210;2022-08-11T07:21:10;8.52;;;2.78;;
16685;SDS011;8456;51.136;4.210;2022-08-11T07:23:59;12.10;;;2.83;;
16685;SDS011;8456;51.136;4.210;2022-08-11T07:26:48;6.22;;;2.65;;
16685;SDS011;8456;51.136;4.210;2022-08-11T07:29:36;4.40;;;2.53;;
16685;SDS011;8456;51.136;4.210;2022-08-11T07:32:09;4.95;;;2.40;;
16685;SDS011;8456;51.136;4.210;2022-08-11T07:34:39;3.38;;;2.50;;
16685;SDS011;8456;51.136;4.210;2022-08-11T07:37:11;8.88;;;2.25;;
16685;SDS011;8456;51.136;4.210;2022-08-11T07:39:42;11.27;;;2.83;;
16685;SDS011;8456;51.136;4.210;2022-08-11T07:42:10;7.10;;;2.58;;
16685;SDS011;8456;51.136;4.210;2022-08-11T07:44:39;5.28;;;2.53;;
16685;SDS011;8456;51.136;4.210;2022-08-11T07:47:25;8.88;;;2.42;;
16685;SDS011;8456;51.136;4.210;2022-08-11T07:50:11;7.18;;;2.63;;
16685;SDS011;8456;51.136;4.210;2022-08-11T07:52:59;7.85;;;2.55;;
16685;SDS011;8456;51.136;4.210;2022-08-11T07:55:27;5.90;;;2.60;;
16685;SDS011;8456;51.136;4.210;2022-08-11T07:57:54;10.55;;;2.63;;
16685;SDS011;8456;51.136;4.210;2022-08-11T08:00:44;7.32;;;2.38;;
16685;SDS011;8456;51.136;4.210;2022-08-11T08:03:30;8.73;;;1.92;;
16685;SDS011;8456;51.136;4.210;2022-08-11T08:06:16;7.43;;;2.10;;
16685;SDS011;8456;51.136;4.210;2022-08-11T08:09:00;4.70;;;2.40;;
16685;SDS011;8456;51.136;4.210;2022-08-11T08:11:46;5.13;;;2.38;;
16685;SDS011;8456;51.136;4.210;2022-08-11T08:14:31;6.50;;;2.28;;
16685;SDS011;8456;51.136;4.210;2022-08-11T08:17:17;10.15;;;3.20;;
16685;SDS011;8456;51.136;4.210;2022-08-11T08:20:02;3.50;;;2.35;;
16685;SDS011;8456;51.136;4.210;2022-08-11T08:22:31;4.20;;;2.30;;
16685;SDS011;8456;51.136;4.210;2022-08-11T08:24:58;3.22;;;2.00;;
16685;SDS011;8456;51.136;4.210;2022-08-11T08:27:25;8.25;;;2.40;;
16685;SDS011;8456;51.136;4.210;2022-08-11T08:29:51;5.57;;;2.20;;
16685;SDS011;8456;51.136;4.210;2022-08-11T08:32:39;8.50;;;2.60;;
16685;SDS011;8456;51.136;4.210;2022-08-11T08:35:06;6.25;;;2.25;;
16685;SDS011;8456;51.136;4.210;2022-08-11T08:37:34;3.42;;;2.30;;
16685;SDS011;8456;51.136;4.210;2022-08-11T08:40:00;3.97;;;2.20;;
16685;SDS011;8456;51.136;4.210;2022-08-11T08:42:30;4.53;;;2.50;;
16685;SDS011;8456;51.136;4.210;2022-08-11T08:45:07;7.25;;;2.30;;
16685;SDS011;8456;51.136;4.210;2022-08-11T08:47:35;4.47;;;2.22;;
16685;SDS011;8456;51.136;4.210;2022-08-11T08:50:04;9.88;;;2.47;;
16685;SDS011;8456;51.136;4.210;2022-08-11T08:52:35;5.55;;;2.33;;
16685;SDS011;8456;51.136;4.210;2022-08-11T08:55:05;6.53;;;2.30;;
16685;SDS011;8456;51.136;4.210;2022-08-11T08:57:34;5.65;;;2.17;;
16685;SDS011;8456;51.136;4.210;2022-08-11T09:00:01;7.30;;;2.28;;
16685;SDS011;8456;51.136;4.210;2022-08-11T09:02:29;6.20;;;2.30;;
16685;SDS011;8456;51.136;4.210;2022-08-11T09:04:55;4.60;;;2.53;;
16685;SDS011;8456;51.136;4.210;2022-08-11T09:07:22;9.65;;;2.45;;
16685;SDS011;8456;51.136;4.210;2022-08-11T09:09:52;4.50;;;2.42;;
16685;SDS011;8456;51.136;4.210;2022-08-11T09:12:21;8.80;;;2.60;;
16685;SDS011;8456;51.136;4.210;2022-08-11T09:14:51;7.82;;;2.28;;
16685;SDS011;8456;51.136;4.210;2022-08-11T09:23:02;4.45;;;2.28;;
16685;SDS011;8456;51.136;4.210;2022-08-11T09:25:58;5.00;;;2.15;;
16685;SDS011;8456;51.136;4.210;2022-08-11T09:28:44;7.55;;;2.65;;
16685;SDS011;8456;51.136;4.210;2022-08-11T09:31:11;8.27;;;2.30;;
16685;SDS011;8456;51.136;4.210;2022-08-11T09:33:38;5.80;;;2.22;;
16685;SDS011;8456;51.136;4.210;2022-08-11T09:36:05;10.57;;;2.80;;
16685;SDS011;8456;51.136;4.210;2022-08-11T09:38:51;8.85;;;2.80;;
16685;SDS011;8456;51.136;4.210;2022-08-11T09:41:36;8.77;;;2.25;;
16685;SDS011;8456;51.136;4.210;2022-08-11T09:44:04;7.78;;;2.30;;
16685;SDS011;8456;51.136;4.210;2022-08-11T09:46:50;7.72;;;2.55;;
16685;SDS011;8456;51.136;4.210;2022-08-11T09:49:18;7.25;;;2.38;;
16685;SDS011;8456;51.136;4.210;2022-08-11T09:51:45;7.68;;;2.45;;
16685;SDS011;8456;51.136;4.210;2022-08-11T09:54:13;4.88;;;2.75;;
16685;SDS011;8456;51.136;4.210;2022-08-11T09:56:41;9.40;;;2.65;;
16685;SDS011;8456;51.136;4.210;2022-08-11T09:59:25;11.02;;;2.65;;
16685;SDS011;8456;51.136;4.210;2022-08-11T10:01:53;8.25;;;2.38;;
16685;SDS011;8456;51.136;4.210;2022-08-11T10:04:34;7.57;;;2.65;;
16685;SDS011;8456;51.136;4.210;2022-08-11T10:07:05;6.85;;;2.38;;
16685;SDS011;8456;51.136;4.210;2022-08-11T10:09:35;8.27;;;2.30;;
16685;SDS011;8456;51.136;4.210;2022-08-11T10:12:13;4.05;;;1.90;;
16685;SDS011;8456;51.136;4.210;2022-08-11T10:15:14;5.85;;;2.63;;
16685;SDS011;8456;51.136;4.210;2022-08-11T10:18:03;6.63;;;2.47;;
16685;SDS011;8456;51.136;4.210;2022-08-11T10:20:50;11.02;;;2.35;;
16685;SDS011;8456;51.136;4.210;2022-08-11T10:23:19;9.18;;;2.20;;
16685;SDS011;8456;51.136;4.210;2022-08-11T10:26:05;6.07;;;2.20;;
16685;SDS011;8456;51.136;4.210;2022-08-11T10:28:51;6.57;;;2.53;;
16685;SDS011;8456;51.136;4.210;2022-08-11T10:31:18;4.03;;;2.28;;
16685;SDS011;8456;51.136;4.210;2022-08-11T10:34:04;6.70;;;2.35;;
16685;SDS011;8456;51.136;4.210;2022-08-11T10:36:33;6.78;;;2.50;;
16685;SDS011;8456;51.136;4.210;2022-08-11T10:39:27;3.13;;;2.45;;
16685;SDS011;8456;51.136;4.210;2022-08-11T10:41:53;12.63;;;2.67;;
16685;SDS011;8456;51.136;4.210;2022-08-11T10:44:43;7.32;;;2.65;;
16685;SDS011;8456;51.136;4.210;2022-08-11T10:47:13;6.63;;;2.38;;
16685;SDS011;8456;51.136;4.210;2022-08-11T10:49:58;6.03;;;2.13;;
16685;SDS011;8456;51.136;4.210;2022-08-11T10:52:47;4.40;;;2.60;;
16685;SDS011;8456;51.136;4.210;2022-08-11T10:55:32;4.65;;;2.28;;
16685;SDS011;8456;51.136;4.210;2022-08-11T10:58:21;10.65;;;2.42;;
16685;SDS011;8456;51.136;4.210;2022-08-11T11:01:07;6.03;;;2.67;;
16685;SDS011;8456;51.136;4.210;2022-08-11T11:03:34;3.83;;;2.00;;
16685;SDS011;8456;51.136;4.210;2022-08-11T11:06:08;4.80;;;2.65;;
16685;SDS011;8456;51.136;4.210;2022-08-11T11:09:07;6.45;;;2.45;;
16685;SDS011;8456;51.136;4.210;2022-08-11T11:11:53;5.40;;;2.28;;
16685;SDS011;8456;51.136;4.210;2022-08-11T11:14:40;6.40;;;2.45;;
16685;SDS011;8456;51.136;4.210;2022-08-11T11:17:31;4.60;;;2.40;;
16685;SDS011;8456;51.136;4.210;2022-08-11T11:34:00;4.82;;;2.30;;
16685;SDS011;8456;51.136;4.210;2022-08-11T11:36:47;7.47;;;2.60;;
16685;SDS011;8456;51.136;4.210;2022-08-11T11:39:19;4.32;;;2.40;;
16685;SDS011;8456;51.136;4.210;2022-08-11T11:41:58;7.65;;;2.17;;
16685;SDS011;8456;51.136;4.210;2022-08-11T11:44:26;8.63;;;2.65;;
16685;SDS011;8456;51.136;4.210;2022-08-11T11:46:52;5.18;;;2.40;;
16685;SDS011;8456;51.136;4.210;2022-08-11T11:49:22;3.83;;;2.05;;
16685;SDS011;8456;51.136;4.210;2022-08-11T11:51:51;3.63;;;2.30;;
16685;SDS011;8456;51.136;4.210;2022-08-11T11:54:29;10.07;;;2.38;;
16685;SDS011;8456;51.136;4.210;2022-08-11T11:56:57;3.90;;;2.53;;
16685;SDS011;8456;51.136;4.210;2022-08-11T11:59:45;3.88;;;2.47;;
16685;SDS011;8456;51.136;4.210;2022-08-11T12:02:35;4.32;;;2.33;;
16685;SDS011;8456;51.136;4.210;2022-08-11T12:05:01;5.60;;;2.25;;
16685;SDS011;8456;51.136;4.210;2022-08-11T12:07:28;3.17;;;2.38;;
16685;SDS011;8456;51.136;4.210;2022-08-11T12:10:14;4.13;;;2.20;;
16685;SDS011;8456;51.136;4.210;2022-08-11T12:12:41;4.70;;;2.40;;
16685;SDS011;8456;51.136;4.210;2022-08-11T12:15:26;4.68;;;1.85;;
16685;SDS011;8456;51.136;4.210;2022-08-11T12:17:53;4.40;;;2.40;;
16685;SDS011;8456;51.136;4.210;2022-08-11T12:20:20;8.00;;;2.47;;
16685;SDS011;8456;51.136;4.210;2022-08-11T12:22:47;5.78;;;2.67;;
16685;SDS011;8456;51.136;4.210;2022-08-11T12:25:32;3.67;;;2.40;;
16685;SDS011;8456;51.136;4.210;2022-08-11T12:28:17;5.47;;;2.60;;
16685;SDS011;8456;51.136;4.210;2022-08-11T12:30:46;5.38;;;2.15;;
16685;SDS011;8456;51.136;4.210;2022-08-11T12:33:13;10.23;;;3.03;;
16685;SDS011;8456;51.136;4.210;2022-08-11T12:35:39;8.13;;;2.50;;
16685;SDS011;8456;51.136;4.210;2022-08-11T12:38:06;4.70;;;2.27;;
16685;SDS011;8456;51.136;4.210;2022-08-11T12:40:33;3.55;;;2.10;;
16685;SDS011;8456;51.136;4.210;2022-08-11T12:43:20;7.68;;;2.30;;
16685;SDS011;8456;51.136;4.210;2022-08-11T12:46:07;9.35;;;2.78;;
16685;SDS011;8456;51.136;4.210;2022-08-11T12:48:36;5.20;;;2.70;;
16685;SDS011;8456;51.136;4.210;2022-08-11T12:51:25;3.80;;;2.45;;
16685;SDS011;8456;51.136;4.210;2022-08-11T12:54:16;3.97;;;2.53;;
16685;SDS011;8456;51.136;4.210;2022-08-11T12:57:36;5.15;;;2.30;;
16685;SDS011;8456;51.136;4.210;2022-08-11T13:00:20;4.18;;;2.45;;
16685;SDS011;8456;51.136;4.210;2022-08-11T13:03:07;2.55;;;2.35;;
16685;SDS011;8456;51.136;4.210;2022-08-11T13:05:56;13.73;;;2.65;;
16685;SDS011;8456;51.136;4.210;2022-08-11T13:08:25;2.50;;;2.15;;
16685;SDS011;8456;51.136;4.210;2022-08-11T13:10:53;6.43;;;2.25;;
16685;SDS011;8456;51.136;4.210;2022-08-11T13:13:40;4.18;;;2.22;;
16685;SDS011;8456;51.136;4.210;2022-08-11T13:16:08;4.70;;;2.53;;
16685;SDS011;8456;51.136;4.210;2022-08-11T13:18:35;4.72;;;2.40;;
16685;SDS011;8456;51.136;4.210;2022-08-11T13:21:02;4.35;;;2.83;;
16685;SDS011;8456;51.136;4.210;2022-08-11T13:23:29;3.80;;;2.20;;
16685;SDS011;8456;51.136;4.210;2022-08-11T13:25:55;5.93;;;2.40;;
16685;SDS011;8456;51.136;4.210;2022-08-11T13:28:22;5.25;;;2.38;;
16685;SDS011;8456;51.136;4.210;2022-08-11T13:30:48;4.00;;;2.10;;
16685;SDS011;8456;51.136;4.210;2022-08-11T13:34:06;4.55;;;2.50;;
16685;SDS011;8456;51.136;4.210;2022-08-11T13:36:27;6.50;;;2.10;;
16685;SDS011;8456;51.136;4.210;2022-08-11T13:38:54;4.47;;;2.10;;
16685;SDS011;8456;51.136;4.210;2022-08-11T13:41:23;4.75;;;2.13;;
16685;SDS011;8456;51.136;4.210;2022-08-11T13:44:04;4.05;;;1.80;;
16685;SDS011;8456;51.136;4.210;2022-08-11T13:46:32;4.10;;;1.80;;
16685;SDS011;8456;51.136;4.210;2022-08-11T13:48:58;5.53;;;2.10;;
16685;SDS011;8456;51.136;4.210;2022-08-11T13:51:25;6.32;;;2.33;;
16685;SDS011;8456;51.136;4.210;2022-08-11T13:56:27;4.15;;;2.35;;
16685;SDS011;8456;51.136;4.210;2022-08-11T13:58:54;5.68;;;2.10;;
16685;SDS011;8456;51.136;4.210;2022-08-11T14:01:22;7.30;;;2.20;;
16685;SDS011;8456;51.136;4.210;2022-08-11T14:03:52;6.25;;;1.85;;
16685;SDS011;8456;51.136;4.210;2022-08-11T14:06:18;2.63;;;2.08;;
16685;SDS011;8456;51.136;4.210;2022-08-11T14:08:46;4.68;;;2.10;;
16685;SDS011;8456;51.136;4.210;2022-08-11T14:11:13;4.40;;;2.22;;
16685;SDS011;8456;51.136;4.210;2022-08-11T14:13:59;9.80;;;2.35;;
16685;SDS011;8456;51.136;4.210;2022-08-11T14:16:30;6.47;;;1.80;;
16685;SDS011;8456;51.136;4.210;2022-08-11T14:19:00;4.95;;;2.10;;
16685;SDS011;8456;51.136;4.210;2022-08-11T14:21:29;4.65;;;1.92;;
16685;SDS011;8456;51.136;4.210;2022-08-11T14:24:19;4.97;;;2.13;;
16685;SDS011;8456;51.136;4.210;2022-08-11T14:26:46;6.05;;;2.10;;
16685;SDS011;8456;51.136;4.210;2022-08-11T14:29:19;6.88;;;2.10;;
16685;SDS011;8456;51.136;4.210;2022-08-11T14:31:50;4.55;;;2.10;;
16685;SDS011;8456;51.136;4.210;2022-08-11T14:34:25;6.45;;;2.15;;
16685;SDS011;8456;51.136;4.210;2022-08-11T14:36:57;3.53;;;2.30;;
16685;SDS011;8456;51.136;4.210;2022-08-11T14:39:26;5.68;;;2.03;;
16685;SDS011;8456;51.136;4.210;2022-08-11T14:41:55;3.60;;;2.17;;
16685;SDS011;8456;51.136;4.210;2022-08-11T14:44:42;7.25;;;2.10;;
16685;SDS011;8456;51.136;4.210;2022-08-11T14:47:29;5.13;;;2.20;;
16685;SDS011;8456;51.136;4.210;2022-08-11T14:49:57;6.50;;;2.08;;
16685;SDS011;8456;51.136;4.210;2022-08-11T14:52:24;8.38;;;2.00;;
16685;SDS011;8456;51.136;4.210;2022-08-11T14:54:51;4.97;;;2.13;;
16685;SDS011;8456;51.136;4.210;2022-08-11T14:57:37;7.43;;;2.60;;
16685;SDS011;8456;51.136;4.210;2022-08-11T15:00:06;4.93;;;2.10;;
16685;SDS011;8456;51.136;4.210;2022-08-11T15:02:37;6.40;;;2.35;;
16685;SDS011;8456;51.136;4.210;2022-08-11T15:05:23;4.10;;;1.90;;
16685;SDS011;8456;51.136;4.210;2022-08-11T15:07:50;6.05;;;1.98;;
16685;SDS011;8456;51.136;4.210;2022-08-11T15:10:17;4.55;;;2.00;;
16685;SDS011;8456;51.136;4.210;2022-08-11T15:12:45;6.55;;;2.42;;
16685;SDS011;8456;51.136;4.210;2022-08-11T15:15:12;2.42;;;2.00;;
16685;SDS011;8456;51.136;4.210;2022-08-11T15:17:58;4.95;;;1.80;;
16685;SDS011;8456;51.136;4.210;2022-08-11T15:20:26;3.92;;;2.28;;
16685;SDS011;8456;51.136;4.210;2022-08-11T15:23:12;5.30;;;2.22;;
16685;SDS011;8456;51.136;4.210;2022-08-11T15:25:58;3.78;;;2.47;;
16685;SDS011;8456;51.136;4.210;2022-08-11T15:28:30;7.32;;;2.20;;
16685;SDS011;8456;51.136;4.210;2022-08-11T15:31:19;3.08;;;1.95;;
16685;SDS011;8456;51.136;4.210;2022-08-11T15:34:06;7.28;;;2.05;;
16685;SDS011;8456;51.136;4.210;2022-08-11T15:36:57;8.65;;;2.55;;
16685;SDS011;8456;51.136;4.210;2022-08-11T15:39:52;3.92;;;1.90;;
16685;SDS011;8456;51.136;4.210;2022-08-11T15:45:41;3.13;;;2.03;;
16685;SDS011;8456;51.136;4.210;2022-08-11T15:48:19;5.93;;;2.03;;
16685;SDS011;8456;51.136;4.210;2022-08-11T15:50:51;3.67;;;2.42;;
16685;SDS011;8456;51.136;4.210;2022-08-11T15:55:50;7.07;;;2.30;;
16685;SDS011;8456;51.136;4.210;2022-08-11T15:58:17;4.13;;;2.00;;
16685;SDS011;8456;51.136;4.210;2022-08-11T16:01:04;5.47;;;2.08;;
16685;SDS011;8456;51.136;4.210;2022-08-11T16:03:53;2.92;;;2.20;;
16685;SDS011;8456;51.136;4.210;2022-08-11T16:06:41;5.90;;;2.42;;
16685;SDS011;8456;51.136;4.210;2022-08-11T16:09:07;4.40;;;2.20;;
16685;SDS011;8456;51.136;4.210;2022-08-11T16:11:34;4.43;;;2.40;;
16685;SDS011;8456;51.136;4.210;2022-08-11T16:14:04;7.55;;;1.95;;
16685;SDS011;8456;51.136;4.210;2022-08-11T16:16:51;4.47;;;1.75;;
16685;SDS011;8456;51.136;4.210;2022-08-11T16:19:18;2.38;;;1.65;;
16685;SDS011;8456;51.136;4.210;2022-08-11T16:21:45;6.57;;;2.40;;
16685;SDS011;8456;51.136;4.210;2022-08-11T16:24:14;3.45;;;2.47;;
16685;SDS011;8456;51.136;4.210;2022-08-11T16:26:43;4.65;;;2.10;;
16685;SDS011;8456;51.136;4.210;2022-08-11T16:29:09;9.02;;;2.25;;
16685;SDS011;8456;51.136;4.210;2022-08-11T16:31:37;3.13;;;1.73;;
16685;SDS011;8456;51.136;4.210;2022-08-11T16:34:05;8.88;;;2.65;;
16685;SDS011;8456;51.136;4.210;2022-08-11T16:36:52;6.45;;;2.78;;
16685;SDS011;8456;51.136;4.210;2022-08-11T16:39:38;5.72;;;2.40;;
16685;SDS011;8456;51.136;4.210;2022-08-11T16:42:05;6.88;;;1.83;;
16685;SDS011;8456;51.136;4.210;2022-08-11T16:44:52;9.57;;;2.08;;
16685;SDS011;8456;51.136;4.210;2022-08-11T16:47:39;4.95;;;2.33;;
16685;SDS011;8456;51.136;4.210;2022-08-11T16:50:07;9.45;;;2.08;;
16685;SDS011;8456;51.136;4.210;2022-08-11T16:52:33;3.40;;;1.90;;
16685;SDS011;8456;51.136;4.210;2022-08-11T16:54:59;5.78;;;2.22;;
16685;SDS011;8456;51.136;4.210;2022-08-11T16:57:27;4.97;;;1.80;;
16685;SDS011;8456;51.136;4.210;2022-08-11T17:00:13;5.35;;;2.08;;
16685;SDS011;8456;51.136;4.210;2022-08-11T17:02:42;6.18;;;1.83;;
16685;SDS011;8456;51.136;4.210;2022-08-11T17:05:30;5.85;;;2.22;;
16685;SDS011;8456;51.136;4.210;2022-08-11T17:08:19;7.25;;;2.13;;
16685;SDS011;8456;51.136;4.210;2022-08-11T17:11:06;7.22;;;2.20;;
16685;SDS011;8456;51.136;4.210;2022-08-11T17:13:55;6.35;;;2.33;;
16685;SDS011;8456;51.136;4.210;2022-08-11T17:16:27;10.60;;;2.60;;
16685;SDS011;8456;51.136;4.210;2022-08-11T17:19:00;2.13;;;1.92;;
16685;SDS011;8456;51.136;4.210;2022-08-11T17:21:48;4.45;;;2.47;;
16685;SDS011;8456;51.136;4.210;2022-08-11T17:24:34;5.15;;;2.28;;
16685;SDS011;8456;51.136;4.210;2022-08-11T17:27:03;5.63;;;2.17;;
16685;SDS011;8456;51.136;4.210;2022-08-11T17:29:53;7.28;;;2.38;;
16685;SDS011;8456;51.136;4.210;2022-08-11T17:32:22;6.03;;;2.67;;
16685;SDS011;8456;51.136;4.210;2022-08-11T17:35:11;4.22;;;2.03;;
16685;SDS011;8456;51.136;4.210;2022-08-11T17:38:08;4.33;;;2.43;;
16685;SDS011;8456;51.136;4.210;2022-08-11T17:40:51;8.57;;;2.40;;
16685;SDS011;8456;51.136;4.210;2022-08-11T17:43:44;2.83;;;2.10;;
16685;SDS011;8456;51.136;4.210;2022-08-11T17:46:29;10.48;;;2.50;;
16685;SDS011;8456;51.136;4.210;2022-08-11T17:49:14;5.30;;;2.13;;
16685;SDS011;8456;51.136;4.210;2022-08-11T17:51:44;8.10;;;2.70;;
16685;SDS011;8456;51.136;4.210;2022-08-11T17:54:32;5.18;;;2.28;;
16685;SDS011;8456;51.136;4.210;2022-08-11T17:57:19;8.07;;;2.28;;
16685;SDS011;8456;51.136;4.210;2022-08-11T18:00:06;11.32;;;2.67;;
16685;SDS011;8456;51.136;4.210;2022-08-11T18:02:40;6.03;;;2.45;;
16685;SDS011;8456;51.136;4.210;2022-08-11T18:05:32;4.00;;;2.50;;
16685;SDS011;8456;51.136;4.210;2022-08-11T18:08:02;7.43;;;2.60;;
16685;SDS011;8456;51.136;4.210;2022-08-11T18:10:50;8.55;;;2.40;;
16685;SDS011;8456;51.136;4.210;2022-08-11T18:13:37;6.22;;;2.28;;
16685;SDS011;8456;51.136;4.210;2022-08-11T18:16:24;12.38;;;2.72;;
16685;SDS011;8456;51.136;4.210;2022-08-11T18:19:09;2.60;;;2.35;;
16685;SDS011;8456;51.136;4.210;2022-08-11T18:22:00;6.00;;;2.22;;
16685;SDS011;8456;51.136;4.210;2022-08-11T18:24:53;5.90;;;2.42;;
16685;SDS011;8456;51.136;4.210;2022-08-11T18:27:42;6.77;;;2.23;;
16685;SDS011;8456;51.136;4.210;2022-08-11T18:30:30;5.15;;;2.90;;
16685;SDS011;8456;51.136;4.210;2022-08-11T18:33:19;4.88;;;2.63;;
16685;SDS011;8456;51.136;4.210;2022-08-11T18:36:07;9.25;;;2.58;;
16685;SDS011;8456;51.136;4.210;2022-08-11T18:38:55;15.63;;;3.00;;
16685;SDS011;8456;51.136;4.210;2022-08-11T18:41:41;7.93;;;2.63;;
16685;SDS011;8456;51.136;4.210;2022-08-11T18:44:29;5.03;;;2.57;;
16685;SDS011;8456;51.136;4.210;2022-08-11T18:47:15;3.20;;;2.33;;
16685;SDS011;8456;51.136;4.210;2022-08-11T18:50:02;9.60;;;3.10;;
16685;SDS011;8456;51.136;4.210;2022-08-11T18:52:50;7.67;;;2.90;;
16685;SDS011;8456;51.136;4.210;2022-08-11T18:55:36;7.63;;;2.73;;
16685;SDS011;8456;51.136;4.210;2022-08-11T18:58:22;4.28;;;2.67;;
16685;SDS011;8456;51.136;4.210;2022-08-11T19:01:11;14.07;;;2.83;;
16685;SDS011;8456;51.136;4.210;2022-08-11T19:03:56;9.57;;;2.83;;
16685;SDS011;8456;51.136;4.210;2022-08-11T19:06:43;7.73;;;2.73;;
16685;SDS011;8456;51.136;4.210;2022-08-11T19:09:29;7.93;;;2.50;;
16685;SDS011;8456;51.136;4.210;2022-08-11T19:12:15;12.30;;;2.70;;
16685;SDS011;8456;51.136;4.210;2022-08-11T19:15:00;7.60;;;2.53;;
16685;SDS011;8456;51.136;4.210;2022-08-11T19:17:47;5.50;;;2.50;;
16685;SDS011;8456;51.136;4.210;2022-08-11T19:20:32;6.50;;;2.83;;
16685;SDS011;8456;51.136;4.210;2022-08-11T19:23:20;10.83;;;2.80;;
16685;SDS011;8456;51.136;4.210;2022-08-11T19:26:11;6.90;;;2.60;;
16685;SDS011;8456;51.136;4.210;2022-08-11T19:28:57;4.97;;;3.07;;